Time;durP1;ratioP1;P1;durP2;ratioP2;P2;SDS_P1;SDS_P2;PMS_P1;PMS_P2;Temp;Humidity;BMP_temperature;BMP_pressure;BME280_temperature;BME280_humidity;BME280_pressure;Samples;Min_cycle;Max_cycle;Signal;HPM_P1;HPM_P2
2022/07/14 00:00:23;;;;;;;8.57;2.10;;;22.20;81.60;;;;;;5049669;28;20044;-52
2022/07/14 00:03:27;;;;;;;6.85;2.50;;;22.20;81.70;;;;;;5049607;28;20049;-53
2022/07/14 00:06:31;;;;;;;3.80;1.52;;;22.20;81.70;;;;;;5069158;22;20045;-53
2022/07/14 00:09:36;;;;;;;2.60;1.75;;;22.20;81.90;;;;;;5029846;28;20049;-52
2022/07/14 00:12:41;;;;;;;1.90;1.67;;;22.20;82.10;;;;;;5029069;28;20057;-52
2022/07/14 00:15:45;;;;;;;3.85;1.65;;;22.20;82.30;;;;;;5029668;28;20049;-50
2022/07/14 00:18:49;;;;;;;4.47;2.03;;;22.10;82.90;;;;;;5029728;28;20416;-52
2022/07/14 00:21:54;;;;;;;3.38;1.63;;;22.00;83.10;;;;;;5029422;28;20045;-51
2022/07/14 00:24:58;;;;;;;3.85;1.73;;;22.00;83.40;;;;;;5029404;28;20052;-52
2022/07/14 00:28:02;;;;;;;4.68;2.10;;;22.00;83.40;;;;;;5029816;28;20412;-53
2022/07/14 00:31:08;;;;;;;4.20;1.63;;;21.90;83.70;;;;;;5029289;28;20113;-49
2022/07/14 00:34:12;;;;;;;3.55;1.92;;;21.90;83.90;;;;;;5029460;28;20029;-55
2022/07/14 00:37:17;;;;;;;2.70;1.60;;;21.90;83.80;;;;;;5028629;28;20033;-50
2022/07/14 00:40:21;;;;;;;2.17;1.50;;;21.90;83.50;;;;;;5029662;28;20045;-50
2022/07/14 00:43:27;;;;;;;3.22;1.90;;;22.00;83.60;;;;;;5029302;28;20049;-55
2022/07/14 00:46:30;;;;;;;5.20;1.55;;;22.00;83.40;;;;;;5029550;28;20052;-52
2022/07/14 00:49:37;;;;;;;4.57;1.63;;;22.00;83.90;;;;;;5029992;28;20407;-50
2022/07/14 00:52:42;;;;;;;3.35;2.03;;;21.90;83.90;;;;;;5029189;28;20045;-51
2022/07/14 00:55:46;;;;;;;3.22;1.80;;;21.90;83.90;;;;;;5029083;28;20030;-51
2022/07/14 00:58:50;;;;;;;4.10;1.80;;;22.00;84.20;;;;;;5032278;28;20404;-50
2022/07/14 01:01:54;;;;;;;3.83;1.85;;;21.90;84.40;;;;;;5031699;28;20044;-51
2022/07/14 01:04:59;;;;;;;2.83;1.80;;;21.80;84.90;;;;;;5032570;28;20044;-54
2022/07/14 01:08:03;;;;;;;2.25;1.50;;;21.70;85.10;;;;;;5031823;28;20045;-52
2022/07/14 01:11:08;;;;;;;4.25;1.95;;;21.60;85.80;;;;;;5032467;28;20037;-50
2022/07/14 01:14:12;;;;;;;4.85;1.90;;;21.40;86.50;;;;;;5032271;28;20046;-50
2022/07/14 01:17:17;;;;;;;6.00;1.90;;;21.30;86.50;;;;;;5032536;28;20052;-50
2022/07/14 01:20:22;;;;;;;2.33;1.70;;;21.30;87.00;;;;;;5032313;28;20048;-53
2022/07/14 01:23:26;;;;;;;5.32;2.05;;;21.10;87.70;;;;;;5031097;28;20053;-51
2022/07/14 01:26:30;;;;;;;8.65;2.00;;;21.10;88.30;;;;;;5032041;28;20045;-51
2022/07/14 01:29:34;;;;;;;5.82;1.80;;;21.00;88.80;;;;;;5032274;28;20548;-50
2022/07/14 01:32:38;;;;;;;5.65;2.10;;;21.10;89.10;;;;;;5030858;28;20045;-51
2022/07/14 01:35:43;;;;;;;4.07;1.85;;;21.10;89.30;;;;;;5032113;28;20048;-51
2022/07/14 01:38:47;;;;;;;4.90;1.70;;;21.10;89.30;;;;;;5031344;28;20062;-49
2022/07/14 01:41:52;;;;;;;4.85;2.58;;;21.10;89.40;;;;;;5031743;28;20033;-57
2022/07/14 01:44:57;;;;;;;3.50;1.95;;;21.10;89.50;;;;;;5030857;28;20048;-54
2022/07/14 01:48:02;;;;;;;2.55;1.60;;;21.00;89.60;;;;;;5031121;28;20249;-51
2022/07/14 01:51:07;;;;;;;2.22;1.75;;;21.00;89.90;;;;;;5031006;28;20052;-55
2022/07/14 01:54:11;;;;;;;3.13;1.80;;;21.00;90.00;;;;;;5030442;28;20045;-54
2022/07/14 01:57:15;;;;;;;4.25;1.80;;;21.10;90.20;;;;;;5030679;28;20520;-54
2022/07/14 02:00:21;;;;;;;5.63;2.10;;;21.00;90.30;;;;;;5030449;28;20030;-56
2022/07/14 02:03:31;;;;;;;2.63;1.63;;;21.00;90.60;;;;;;5030524;28;20049;-54
2022/07/14 02:06:35;;;;;;;5.63;2.08;;;20.90;90.80;;;;;;5030758;28;20065;-52
2022/07/14 02:13:08;;;;;;;5.13;2.20;;;20.60;91.30;;;;;;5029533;28;20037;-54
2022/07/14 02:16:12;;;;;;;2.97;1.73;;;20.60;91.70;;;;;;5030150;28;20082;-56
2022/07/14 02:19:16;;;;;;;5.07;1.98;;;20.60;91.90;;;;;;5030453;28;20036;-56
2022/07/14 02:22:20;;;;;;;4.45;1.98;;;20.60;92.00;;;;;;5031287;28;20048;-52
2022/07/14 02:25:26;;;;;;;5.53;2.58;;;20.60;92.00;;;;;;5030378;28;20432;-56
2022/07/14 02:28:30;;;;;;;6.32;2.10;;;20.60;92.20;;;;;;5030422;28;20044;-56
2022/07/14 02:31:34;;;;;;;3.22;1.92;;;20.50;92.50;;;;;;5029780;28;20036;-53
2022/07/14 02:34:39;;;;;;;4.03;1.80;;;20.40;92.90;;;;;;5029329;28;20033;-55
2022/07/14 02:37:43;;;;;;;5.22;2.00;;;20.30;93.40;;;;;;5030253;28;20044;-53
2022/07/14 02:40:47;;;;;;;9.90;2.33;;;20.20;93.40;;;;;;5030705;28;20040;-51
2022/07/14 02:43:51;;;;;;;4.10;2.10;;;20.10;93.60;;;;;;5030358;28;20038;-53
2022/07/14 02:46:58;;;;;;;6.82;2.55;;;20.00;94.00;;;;;;5029841;28;20319;-55
2022/07/14 02:50:03;;;;;;;2.80;1.95;;;19.90;94.30;;;;;;5029449;28;20041;-52
2022/07/14 02:53:09;;;;;;;5.68;2.13;;;19.90;94.40;;;;;;5029546;28;20040;-54
2022/07/14 02:56:16;;;;;;;8.07;2.22;;;19.80;94.70;;;;;;5029652;28;20045;-51
2022/07/14 02:59:19;;;;;;;4.25;2.33;;;19.90;94.90;;;;;;5030729;28;20029;-50
2022/07/14 03:02:27;;;;;;;2.53;2.20;;;19.90;94.80;;;;;;5029884;28;20048;-53
2022/07/14 03:05:31;;;;;;;3.70;2.00;;;20.00;94.80;;;;;;5029175;28;20052;-54
2022/07/14 03:08:35;;;;;;;2.50;2.28;;;20.00;94.80;;;;;;5029705;28;20420;-55
2022/07/14 03:11:39;;;;;;;4.45;2.20;;;19.90;95.10;;;;;;5030031;28;20056;-55
2022/07/14 03:14:43;;;;;;;4.00;2.20;;;19.90;95.50;;;;;;5029383;28;20029;-53
2022/07/14 03:17:48;;;;;;;4.68;2.40;;;19.90;95.50;;;;;;5030182;28;20040;-50
2022/07/14 03:20:52;;;;;;;3.33;1.92;;;19.90;95.20;;;;;;5029363;28;20048;-52
2022/07/14 03:23:57;;;;;;;2.33;1.98;;;19.90;95.20;;;;;;5029495;28;20048;-51
2022/07/14 03:27:04;;;;;;;4.75;1.98;;;19.80;95.80;;;;;;5029580;28;20049;-51
2022/07/14 03:30:09;;;;;;;6.38;2.00;;;19.50;96.90;;;;;;5029408;28;20045;-54
2022/07/14 03:33:14;;;;;;;2.67;1.90;;;19.40;97.50;;;;;;5029143;28;20049;-54
2022/07/14 03:36:22;;;;;;;2.33;2.10;;;19.30;98.10;;;;;;5029446;28;20048;-51
2022/07/14 03:39:27;;;;;;;10.82;2.38;;;19.20;98.70;;;;;;5029290;28;20044;-53
2022/07/14 03:42:31;;;;;;;9.90;2.67;;;19.20;99.10;;;;;;5029283;28;20056;-55
2022/07/14 03:45:36;;;;;;;5.25;2.55;;;19.10;99.30;;;;;;5028730;28;20046;-51
2022/07/14 03:48:41;;;;;;;3.95;2.42;;;19.00;99.70;;;;;;5029281;28;20037;-54
2022/07/14 03:51:46;;;;;;;5.15;2.40;;;18.90;99.90;;;;;;5028946;28;20045;-57
2022/07/14 03:54:56;;;;;;;5.07;2.83;;;18.90;99.90;;;;;;5028460;28;20045;-53
2022/07/14 03:58:01;;;;;;;3.17;2.10;;;18.80;99.90;;;;;;5028721;28;20042;-49
2022/07/14 04:01:08;;;;;;;7.47;2.30;;;18.80;99.90;;;;;;5028870;28;20033;-54
2022/07/14 04:04:12;;;;;;;6.38;2.30;;;18.80;99.90;;;;;;5028402;28;20056;-52
2022/07/14 04:07:17;;;;;;;5.72;2.25;;;18.70;99.90;;;;;;5028671;28;20516;-49
2022/07/14 04:10:20;;;;;;;7.63;3.10;;;18.80;99.90;;;;;;5029575;28;20517;-52
2022/07/14 04:13:25;;;;;;;14.13;2.60;;;18.80;99.90;;;;;;5027894;28;20428;-51
2022/07/14 04:16:29;;;;;;;6.57;2.40;;;18.70;99.90;;;;;;5028424;28;20041;-49
2022/07/14 04:19:34;;;;;;;6.57;2.75;;;18.80;99.90;;;;;;5028786;28;20045;-54
2022/07/14 04:22:39;;;;;;;4.70;2.50;;;18.80;99.90;;;;;;5028608;28;20057;-52
2022/07/14 04:25:44;;;;;;;5.50;2.40;;;18.80;99.90;;;;;;5028127;28;20048;-49
2022/07/14 04:28:48;;;;;;;6.45;2.28;;;18.80;99.90;;;;;;5028495;28;20045;-52
2022/07/14 04:31:52;;;;;;;6.35;2.05;;;18.80;99.90;;;;;;5029052;28;20052;-54
2022/07/14 04:35:00;;;;;;;3.28;2.00;;;18.90;99.90;;;;;;5031869;28;20045;-55
2022/07/14 04:38:04;;;;;;;4.57;1.85;;;19.00;99.90;;;;;;5033380;28;20052;-52
2022/07/14 04:41:18;;;;;;;4.72;2.00;;;20.60;99.90;;;;;;5032133;28;20037;-52
2022/07/14 04:44:22;;;;;;;5.32;1.98;;;23.50;96.80;;;;;;5032246;28;20045;-52
2022/07/14 04:47:27;;;;;;;3.60;1.80;;;25.90;92.50;;;;;;5031815;28;20045;-50
2022/07/14 04:53:54;;;;;;;6.57;1.73;;;28.00;83.30;;;;;;5031139;28;20052;-50
2022/07/14 04:57:19;;;;;;;4.88;2.00;;;28.50;82.10;;;;;;5032372;28;20400;-50
2022/07/14 05:00:24;;;;;;;7.07;2.05;;;29.30;80.40;;;;;;5031554;28;20052;-52
2022/07/14 05:03:28;;;;;;;3.33;2.00;;;29.00;81.10;;;;;;5031315;28;20400;-51
2022/07/14 05:06:33;;;;;;;4.88;2.40;;;29.10;81.10;;;;;;5030907;28;20045;-50
2022/07/14 05:09:38;;;;;;;7.25;2.40;;;29.30;81.80;;;;;;5031570;28;20416;-56
2022/07/14 05:12:43;;;;;;;13.55;2.55;;;30.30;80.00;;;;;;5031041;28;20041;-53
2022/07/14 05:15:47;;;;;;;3.67;2.20;;;30.70;79.00;;;;;;5031356;28;20041;-52
2022/07/14 05:18:51;;;;;;;3.33;2.40;;;29.60;79.40;;;;;;5031731;28;20506;-53
2022/07/14 05:21:55;;;;;;;4.32;2.28;;;30.20;79.70;;;;;;5031412;28;20048;-53
2022/07/14 05:25:00;;;;;;;2.90;2.13;;;30.50;79.20;;;;;;5031288;28;20426;-50
2022/07/14 05:28:04;;;;;;;2.88;2.03;;;31.00;78.30;;;;;;5031387;28;20049;-52
2022/07/14 05:31:14;;;;;;;6.30;2.83;;;30.30;78.00;;;;;;5031247;28;20400;-50
2022/07/14 05:34:23;;;;;;;4.20;1.98;;;30.40;77.80;;;;;;5031090;28;20037;-50
2022/07/14 05:37:28;;;;;;;4.78;2.20;;;31.30;77.50;;;;;;5030660;28;20064;-52
2022/07/14 05:40:33;;;;;;;3.20;2.15;;;31.70;76.70;;;;;;5031952;28;20431;-53
2022/07/14 05:43:37;;;;;;;4.88;2.00;;;31.60;76.00;;;;;;5031264;28;20056;-49
2022/07/14 05:46:41;;;;;;;5.88;2.17;;;30.70;77.30;;;;;;5030354;28;20050;-51
2022/07/14 05:49:45;;;;;;;3.05;2.13;;;31.00;76.60;;;;;;5031201;28;20050;-52
2022/07/14 05:52:50;;;;;;;8.70;2.30;;;30.80;76.60;;;;;;5031098;28;20034;-51
2022/07/14 05:55:54;;;;;;;8.05;2.22;;;30.60;75.50;;;;;;5030949;28;20044;-51
2022/07/14 05:59:00;;;;;;;4.88;2.03;;;29.10;76.70;;;;;;5029536;28;20401;-54
2022/07/14 06:02:05;;;;;;;4.75;1.88;;;28.90;77.20;;;;;;5030220;28;20040;-52
2022/07/14 06:05:10;;;;;;;7.75;1.92;;;29.90;77.50;;;;;;5022888;28;20033;-50
2022/07/14 06:08:14;;;;;;;2.83;1.77;;;29.80;76.70;;;;;;5030397;28;20404;-53
2022/07/14 06:11:20;;;;;;;3.17;2.08;;;29.20;77.40;;;;;;5028525;28;20523;-51
2022/07/14 06:14:25;;;;;;;11.00;2.05;;;27.60;78.80;;;;;;5030235;28;20037;-53
2022/07/14 06:17:29;;;;;;;3.65;1.88;;;27.50;79.10;;;;;;5055849;23;20060;-54
2022/07/14 06:20:34;;;;;;;5.05;1.60;;;28.40;79.10;;;;;;5049371;28;20391;-55
2022/07/14 06:23:39;;;;;;;5.68;1.65;;;30.10;76.80;;;;;;5042929;28;20081;-53
2022/07/14 06:26:43;;;;;;;5.72;1.88;;;30.20;74.90;;;;;;5049225;28;20041;-53
2022/07/14 06:29:49;;;;;;;6.18;1.85;;;29.30;76.10;;;;;;5049599;28;20427;-55
2022/07/14 06:32:54;;;;;;;4.38;1.90;;;28.50;76.80;;;;;;5048950;28;20052;-53
2022/07/14 06:35:59;;;;;;;5.07;2.38;;;28.90;77.40;;;;;;5038216;28;20747;-52
2022/07/14 06:39:03;;;;;;;4.38;1.90;;;29.30;76.50;;;;;;5049709;28;20036;-52
2022/07/14 06:42:09;;;;;;;4.70;1.50;;;29.30;76.10;;;;;;5041486;28;20052;-52
2022/07/14 06:45:20;;;;;;;4.82;1.83;;;29.90;75.60;;;;;;5039636;28;20044;-55
2022/07/14 06:48:24;;;;;;;3.88;1.73;;;30.90;74.30;;;;;;5046570;28;20226;-55
2022/07/14 06:51:28;;;;;;;5.57;1.92;;;31.50;73.30;;;;;;5044056;28;20044;-55
2022/07/14 06:54:32;;;;;;;2.63;1.65;;;31.00;73.50;;;;;;5042407;28;20044;-54
2022/07/14 06:57:37;;;;;;;4.78;1.65;;;30.60;73.60;;;;;;5049187;28;20055;-55
2022/07/14 07:00:40;;;;;;;4.25;1.77;;;31.40;73.10;;;;;;5029909;28;20060;-56
2022/07/14 07:03:44;;;;;;;2.65;1.48;;;30.40;73.30;;;;;;5035101;28;20041;-54
2022/07/14 07:06:48;;;;;;;1.95;1.52;;;31.80;73.00;;;;;;5049407;28;20055;-54
2022/07/14 07:09:52;;;;;;;2.63;1.50;;;32.00;72.40;;;;;;5046679;28;20529;-55
2022/07/14 07:12:57;;;;;;;4.15;1.40;;;31.80;71.50;;;;;;5048472;28;20411;-55
2022/07/14 07:16:08;;;;;;;4.30;1.55;;;33.10;70.30;;;;;;5038322;28;20042;-54
2022/07/14 07:19:13;;;;;;;3.47;1.20;;;33.70;67.30;;;;;;5046267;28;20043;-55
2022/07/14 07:22:17;;;;;;;8.13;1.73;;;34.60;66.10;;;;;;5043056;28;20040;-57
2022/07/14 07:25:21;;;;;;;5.13;1.30;;;34.10;66.40;;;;;;5037980;28;20052;-57
2022/07/14 07:28:25;;;;;;;5.15;1.50;;;34.70;66.00;;;;;;5036267;28;20038;-57
2022/07/14 07:31:30;;;;;;;5.38;1.20;;;33.00;65.90;;;;;;5044540;28;20047;-57
2022/07/14 07:34:36;;;;;;;4.35;1.55;;;33.10;66.90;;;;;;5047908;28;20040;-57
2022/07/14 07:37:40;;;;;;;4.72;1.40;;;33.30;67.30;;;;;;5049024;28;20068;-58
2022/07/14 07:40:44;;;;;;;4.28;1.40;;;34.70;65.70;;;;;;5034307;28;20042;-53
2022/07/14 07:43:48;;;;;;;3.53;1.25;;;35.50;64.30;;;;;;5035829;28;20040;-57
2022/07/14 07:46:53;;;;;;;7.05;1.50;;;36.20;64.00;;;;;;5048781;28;20025;-56
2022/07/14 07:49:58;;;;;;;3.53;1.58;;;36.50;62.90;;;;;;5047248;28;20043;-56
2022/07/14 07:53:04;;;;;;;4.70;1.20;;;37.70;62.40;;;;;;5049169;28;20048;-57
2022/07/14 07:56:08;;;;;;;3.28;1.20;;;37.00;60.70;;;;;;5049459;28;20032;-53
2022/07/14 07:59:15;;;;;;;1.80;1.33;;;37.10;60.70;;;;;;5047250;28;20041;-52
2022/07/14 08:02:24;;;;;;;1.45;1.00;;;37.30;60.80;;;;;;5049200;28;20041;-57
2022/07/14 08:05:30;;;;;;;2.97;1.23;;;38.40;59.90;;;;;;5040817;28;20045;-56
2022/07/14 08:08:34;;;;;;;8.60;1.05;;;39.20;58.80;;;;;;5049244;28;20041;-55
2022/07/14 08:11:40;;;;;;;6.18;1.10;;;36.40;58.70;;;;;;5053569;28;20044;-57
2022/07/14 08:14:51;;;;;;;1.90;0.95;;;36.70;58.60;;;;;;5046181;28;20045;-53
2022/07/14 08:17:56;;;;;;;4.25;1.40;;;37.20;59.20;;;;;;5052115;28;20049;-56
2022/07/14 08:21:00;;;;;;;1.70;1.00;;;38.20;58.60;;;;;;5052556;28;20664;-56
2022/07/14 08:24:04;;;;;;;2.30;1.10;;;38.50;55.70;;;;;;5053021;28;20056;-57
2022/07/14 08:27:08;;;;;;;8.95;1.10;;;38.40;56.00;;;;;;5051623;28;20052;-58
2022/07/14 08:30:13;;;;;;;5.20;1.10;;;39.20;57.00;;;;;;5053065;28;20514;-55
2022/07/14 08:33:17;;;;;;;3.85;0.80;;;40.50;56.30;;;;;;5049140;28;20048;-58
2022/07/14 08:36:22;;;;;;;3.67;1.00;;;41.80;55.60;;;;;;5046060;28;20048;-58
2022/07/14 08:39:27;;;;;;;3.08;1.00;;;41.90;54.20;;;;;;5051057;28;20048;-58
2022/07/14 08:42:32;;;;;;;4.47;1.10;;;40.00;53.90;;;;;;5052409;28;20044;-58
2022/07/14 08:45:43;;;;;;;2.85;1.10;;;39.40;56.30;;;;;;5043392;28;20040;-58
2022/07/14 08:48:47;;;;;;;4.38;0.95;;;40.30;55.40;;;;;;5046176;28;20060;-57
2022/07/14 08:51:52;;;;;;;2.45;1.30;;;40.10;55.60;;;;;;5047595;28;20644;-57
2022/07/14 08:54:57;;;;;;;1.58;1.15;;;41.90;55.00;;;;;;5052198;28;20054;-58
2022/07/14 08:58:02;;;;;;;6.07;0.90;;;42.70;53.80;;;;;;5052404;28;20029;-58
2022/07/14 09:01:07;;;;;;;4.32;0.80;;;41.10;55.00;;;;;;5050954;28;20044;-58
2022/07/14 09:04:12;;;;;;;6.38;1.23;;;41.80;54.80;;;;;;5046759;28;20044;-58
2022/07/14 09:07:31;;;;;;;3.10;1.08;;;42.40;54.80;;;;;;5052488;28;20040;-57
2022/07/14 09:10:35;;;;;;;2.97;1.15;;;43.30;54.30;;;;;;5051488;28;20038;-56
2022/07/14 09:13:39;;;;;;;5.20;1.08;;;42.40;54.80;;;;;;5052014;28;20037;-55
2022/07/14 09:16:43;;;;;;;8.23;1.17;;;42.80;54.60;;;;;;5032725;28;20404;-57
2022/07/14 09:20:10;;;;;;;3.85;0.85;;;43.00;54.20;;;;;;5040737;28;20399;-56
2022/07/14 09:23:14;;;;;;;1.50;0.85;;;45.00;51.70;;;;;;5050448;28;20045;-57
2022/07/14 09:26:20;;;;;;;0.98;0.80;;;44.50;51.80;;;;;;5050060;28;20045;-57
2022/07/14 09:29:29;;;;;;;3.30;1.27;;;41.80;51.70;;;;;;5051692;28;20048;-55
2022/07/14 09:32:52;;;;;;;1.67;0.87;;;39.60;53.50;;;;;;5045150;28;20033;-55
2022/07/14 09:35:56;;;;;;;3.58;0.80;;;42.50;51.00;;;;;;5051089;28;20270;-56
2022/07/14 09:39:01;;;;;;;2.97;0.77;;;43.10;49.80;;;;;;5034518;28;20044;-58
2022/07/14 09:42:05;;;;;;;6.18;0.95;;;43.40;47.80;;;;;;5032668;28;20049;-55
2022/07/14 09:45:09;;;;;;;1.33;0.70;;;44.30;43.50;;;;;;5050374;28;20037;-58
2022/07/14 09:48:18;;;;;;;1.27;0.60;;;42.10;44.30;;;;;;5045494;28;20047;-57
2022/07/14 09:51:22;;;;;;;1.60;0.90;;;42.60;45.20;;;;;;5049449;28;20044;-56
2022/07/14 09:54:48;;;;;;;1.98;0.65;;;45.70;46.80;;;;;;5047916;28;20053;-56
2022/07/14 09:57:52;;;;;;;2.17;0.80;;;47.60;45.90;;;;;;5042959;28;20044;-55
2022/07/14 10:01:04;;;;;;;1.83;0.80;;;48.30;45.80;;;;;;5040316;28;20491;-55
2022/07/14 10:04:08;;;;;;;2.35;0.70;;;43.70;45.80;;;;;;5045514;28;20037;-55
2022/07/14 10:07:12;;;;;;;1.20;0.70;;;43.40;46.80;;;;;;5050721;28;20044;-58
2022/07/14 10:10:16;;;;;;;2.38;0.63;;;45.50;46.40;;;;;;5031186;28;20045;-56
2022/07/14 10:13:21;;;;;;;2.05;0.55;;;47.40;45.70;;;;;;5037815;28;20048;-55
2022/07/14 10:16:33;;;;;;;1.88;0.60;;;49.00;44.70;;;;;;5051155;28;20033;-55
2022/07/14 10:19:38;;;;;;;1.88;0.65;;;46.60;42.70;;;;;;5050564;28;20415;-55
2022/07/14 10:22:45;;;;;;;1.20;0.50;;;41.60;42.30;;;;;;5050965;28;20042;-54
2022/07/14 10:25:51;;;;;;;1.83;0.77;;;42.80;41.10;;;;;;5050719;28;20034;-55
2022/07/14 10:28:55;;;;;;;1.70;0.60;;;45.00;43.30;;;;;;5047457;28;20037;-54
2022/07/14 10:32:22;;;;;;;1.98;0.60;;;48.10;42.70;;;;;;5049412;28;20407;-56
2022/07/14 10:35:45;;;;;;;1.48;0.50;;;48.10;42.30;;;;;;5047880;28;20039;-54
2022/07/14 10:39:07;;;;;;;4.13;0.60;;;49.80;41.40;;;;;;5048505;28;20033;-55
2022/07/14 10:42:34;;;;;;;1.90;0.40;;;50.90;41.20;;;;;;5048175;28;20032;-55
2022/07/14 10:45:53;;;;;;;3.55;0.47;;;50.60;39.30;;;;;;5049307;28;20042;-54
2022/07/14 10:48:57;;;;;;;0.73;0.30;;;50.30;38.80;;;;;;5049252;28;20025;-55
2022/07/14 10:52:01;;;;;;;0.55;0.30;;;47.80;37.50;;;;;;5044921;28;20052;-55
2022/07/14 10:55:22;;;;;;;0.40;0.30;;;48.50;38.90;;;;;;5049056;28;20055;-54
2022/07/14 10:58:27;;;;;;;2.85;0.40;;;49.10;37.60;;;;;;5050417;28;20041;-55
2022/07/14 11:01:31;;;;;;;5.07;1.02;;;48.90;38.40;;;;;;5046293;28;20048;-56
2022/07/14 11:08:09;;;;;;;3.80;0.30;;;45.90;38.90;;;;;;5047730;28;20045;-57
2022/07/14 11:11:18;;;;;;;1.65;0.20;;;45.70;38.20;;;;;;5038787;28;20068;-57
2022/07/14 11:14:25;;;;;;;1.05;0.40;;;45.30;36.50;;;;;;5049866;28;20380;-56
2022/07/14 11:17:33;;;;;;;2.58;0.30;;;46.20;39.20;;;;;;5050343;28;20056;-55
2022/07/14 11:21:24;;;;;;;3.00;0.50;;;47.30;39.70;;;;;;5049080;28;20400;-55
2022/07/14 11:24:32;;;;;;;2.55;0.47;;;45.20;39.70;;;;;;5028423;28;20064;-55
2022/07/14 11:27:50;;;;;;;2.88;0.47;;;45.30;39.80;;;;;;5048832;28;20040;-57
2022/07/14 11:31:22;;;;;;;3.17;1.05;;;45.60;39.40;;;;;;5049781;28;20048;-58
2022/07/14 11:38:22;;;;;;;0.60;0.30;;;46.50;38.90;;;;;;5048569;28;20029;-55
2022/07/14 11:41:42;;;;;;;1.52;0.35;;;46.30;38.60;;;;;;5048991;28;20057;-57
2022/07/14 11:44:54;;;;;;;0.65;0.30;;;43.00;38.80;;;;;;5048664;28;20044;-57
2022/07/14 11:47:58;;;;;;;0.73;0.30;;;42.80;39.70;;;;;;5048350;28;20044;-56
2022/07/14 11:51:11;;;;;;;2.95;0.43;;;40.50;39.30;;;;;;5042869;28;20036;-56
2022/07/14 11:54:17;;;;;;;1.42;0.40;;;39.00;40.50;;;;;;5037774;28;20045;-57
2022/07/14 11:57:23;;;;;;;0.68;0.32;;;40.00;39.60;;;;;;5038437;28;20030;-56
2022/07/14 12:00:28;;;;;;;4.18;0.63;;;41.90;39.90;;;;;;5047181;28;20044;-57
2022/07/14 12:03:32;;;;;;;0.88;0.20;;;42.30;40.10;;;;;;5042400;28;20044;-53
2022/07/14 12:06:42;;;;;;;1.10;0.20;;;43.30;40.30;;;;;;5042754;28;20033;-58
2022/07/14 12:09:47;;;;;;;0.30;0.30;;;41.80;38.40;;;;;;5042319;28;20120;-56
2022/07/14 12:12:51;;;;;;;1.80;0.40;;;40.10;39.40;;;;;;5047841;28;20040;-56
2022/07/14 12:16:05;;;;;;;0.75;0.22;;;38.40;38.20;;;;;;5049442;28;20411;-56
2022/07/14 12:19:11;;;;;;;0.75;0.20;;;39.20;38.90;;;;;;5049795;28;20055;-56
2022/07/14 12:22:16;;;;;;;0.63;0.20;;;39.60;37.90;;;;;;5047305;28;20048;-53
2022/07/14 12:25:42;;;;;;;0.20;0.10;;;39.60;38.30;;;;;;5049502;28;20061;-52
2022/07/14 12:28:54;;;;;;;1.58;0.30;;;40.90;36.70;;;;;;5049651;28;20044;-55
2022/07/14 12:31:59;;;;;;;3.17;0.32;;;41.60;36.80;;;;;;5048596;28;20136;-57
2022/07/14 12:35:05;;;;;;;3.17;0.50;;;40.60;37.80;;;;;;5048565;28;20032;-54
2022/07/14 12:38:36;;;;;;;1.25;0.43;;;39.60;39.60;;;;;;5060690;22;20403;-86
2022/07/14 12:41:43;;;;;;;1.13;0.50;;;40.10;39.60;;;;;;4982694;28;20049;-57
2022/07/14 12:45:02;;;;;;;1.17;0.40;;;39.80;41.90;;;;;;4988307;28;20405;-57
2022/07/14 12:48:11;;;;;;;1.17;0.40;;;40.90;40.40;;;;;;4984068;28;20061;-57
2022/07/14 12:51:39;;;;;;;1.05;0.60;;;41.10;40.00;;;;;;4988236;28;20037;-51
2022/07/14 12:54:43;;;;;;;1.42;0.60;;;39.70;42.60;;;;;;4982477;28;20043;-56
2022/07/14 12:57:47;;;;;;;1.20;0.65;;;37.90;42.80;;;;;;4992695;28;20378;-55
2022/07/14 13:00:51;;;;;;;2.50;0.50;;;37.90;43.40;;;;;;4992895;28;20041;-54
2022/07/14 13:04:01;;;;;;;1.95;0.60;;;39.10;43.10;;;;;;4991638;28;20049;-53
2022/07/14 13:07:25;;;;;;;3.00;0.70;;;39.20;42.50;;;;;;4997210;28;20026;-55
2022/07/14 13:10:29;;;;;;;1.60;0.50;;;39.80;42.40;;;;;;4986808;28;20044;-57
2022/07/14 13:13:54;;;;;;;4.22;0.90;;;40.30;42.30;;;;;;4987330;28;20049;-57
2022/07/14 13:16:58;;;;;;;0.73;0.60;;;40.80;42.40;;;;;;4983733;28;20052;-57
2022/07/14 13:20:02;;;;;;;1.25;0.47;;;40.70;43.20;;;;;;4990567;28;20061;-54
2022/07/14 13:23:06;;;;;;;2.63;0.50;;;38.90;40.90;;;;;;4984033;28;20050;-57
2022/07/14 13:26:10;;;;;;;1.85;0.60;;;38.10;42.40;;;;;;4985389;28;20042;-57
2022/07/14 13:29:14;;;;;;;0.95;0.60;;;36.40;43.70;;;;;;4989089;28;20041;-52
2022/07/14 13:32:18;;;;;;;0.88;0.60;;;35.80;43.80;;;;;;4994521;28;20504;-55
2022/07/14 13:35:22;;;;;;;0.80;0.50;;;36.90;42.30;;;;;;4987032;28;20046;-51
2022/07/14 13:38:27;;;;;;;3.70;0.82;;;37.20;44.70;;;;;;4988517;28;20033;-53
2022/07/14 13:41:31;;;;;;;1.25;0.50;;;37.30;44.30;;;;;;4988233;28;20045;-57
2022/07/14 13:44:35;;;;;;;4.63;0.65;;;38.30;43.10;;;;;;4988205;28;20444;-57
2022/07/14 13:47:39;;;;;;;1.45;0.70;;;38.50;44.50;;;;;;4985438;28;20061;-57
2022/07/14 13:54:06;;;;;;;2.75;0.70;;;38.10;44.60;;;;;;4986604;28;20038;-56
2022/07/14 13:57:11;;;;;;;1.10;0.57;;;37.90;45.00;;;;;;4990371;28;20034;-56
2022/07/14 14:00:15;;;;;;;2.88;0.60;;;37.00;45.60;;;;;;4990511;28;20037;-53
2022/07/14 14:03:26;;;;;;;2.97;0.68;;;37.30;45.20;;;;;;4987538;28;20033;-55
2022/07/14 14:06:29;;;;;;;;;;;37.10;45.70;;;;;;4989940;28;20999;-49
2022/07/14 14:09:34;;;;;;;2.17;0.70;;;37.10;45.80;;;;;;4988558;28;19920;-53
2022/07/14 14:12:37;;;;;;;4.82;0.90;;;36.40;45.90;;;;;;4990590;28;20045;-55
2022/07/14 14:15:41;;;;;;;2.53;0.75;;;36.50;46.00;;;;;;4999520;28;20053;-54
2022/07/14 14:18:45;;;;;;;3.60;0.80;;;36.70;46.10;;;;;;4989896;28;20038;-53
2022/07/14 14:21:50;;;;;;;2.15;0.80;;;36.90;46.10;;;;;;4978462;28;20042;-52
2022/07/14 14:24:54;;;;;;;2.92;0.63;;;37.30;45.60;;;;;;4985821;28;20934;-53
2022/07/14 14:27:58;;;;;;;11.27;1.45;;;37.50;45.00;;;;;;4990171;28;20046;-56
2022/07/14 14:31:02;;;;;;;8.02;1.20;;;37.60;44.60;;;;;;4987790;28;20045;-53
2022/07/14 14:34:07;;;;;;;1.38;0.80;;;37.90;44.40;;;;;;4989594;28;20042;-52
2022/07/14 14:37:10;;;;;;;1.95;0.80;;;37.00;44.90;;;;;;4989701;28;20053;-51
2022/07/14 14:40:19;;;;;;;1.45;0.70;;;36.90;44.90;;;;;;4985411;28;20053;-56
2022/07/14 14:43:22;;;;;;;3.72;0.90;;;37.30;45.00;;;;;;4983468;28;20405;-56
2022/07/14 14:46:26;;;;;;;1.65;0.77;;;36.40;44.80;;;;;;4987945;28;20034;-50
2022/07/14 14:49:34;;;;;;;5.50;0.93;;;36.50;46.00;;;;;;4985348;28;20035;-51
2022/07/14 14:52:38;;;;;;;3.58;0.80;;;36.50;46.30;;;;;;4991671;28;20053;-56
2022/07/14 14:55:42;;;;;;;3.33;0.98;;;36.70;46.40;;;;;;4985221;28;20041;-55
2022/07/14 14:58:46;;;;;;;4.22;1.00;;;37.10;46.90;;;;;;4987948;28;20046;-51
2022/07/14 15:01:54;;;;;;;2.55;0.80;;;37.40;46.10;;;;;;4987071;28;20042;-55
2022/07/14 15:04:58;;;;;;;3.05;0.98;;;37.50;46.00;;;;;;4971630;28;20425;-54
2022/07/14 15:08:02;;;;;;;2.08;0.90;;;37.50;46.20;;;;;;4989956;28;20516;-53
2022/07/14 15:11:07;;;;;;;1.10;0.80;;;37.60;45.80;;;;;;4988355;28;20038;-54
2022/07/14 15:14:11;;;;;;;10.23;1.80;;;37.70;46.20;;;;;;4972847;28;20502;-57
2022/07/14 15:17:15;;;;;;;3.97;1.00;;;37.70;45.70;;;;;;4985531;28;20520;-54
2022/07/14 15:20:20;;;;;;;1.95;0.95;;;37.70;45.40;;;;;;4982733;28;20064;-52
2022/07/14 15:23:23;;;;;;;2.67;1.02;;;37.60;46.00;;;;;;4985478;28;20034;-53
2022/07/14 15:26:28;;;;;;;2.40;0.80;;;37.70;46.20;;;;;;4983803;28;20046;-51
2022/07/14 15:29:32;;;;;;;4.43;1.00;;;37.70;46.60;;;;;;4982453;28;20045;-54
2022/07/14 15:32:36;;;;;;;6.13;1.50;;;37.70;46.70;;;;;;4987190;28;20035;-53
2022/07/14 15:35:40;;;;;;;3.35;1.20;;;37.70;46.90;;;;;;4987240;28;20034;-52
2022/07/14 15:42:06;;;;;;;2.15;1.00;;;37.50;46.90;;;;;;4989835;28;20045;-58
2022/07/14 15:45:14;;;;;;;3.97;1.20;;;37.40;47.40;;;;;;4989184;28;20045;-57
2022/07/14 15:48:18;;;;;;;2.97;1.20;;;37.30;47.80;;;;;;4990596;28;20041;-57
2022/07/14 15:51:22;;;;;;;2.60;1.00;;;37.20;47.40;;;;;;4989319;28;20540;-55
2022/07/14 15:54:26;;;;;;;3.80;1.00;;;37.20;47.90;;;;;;4989715;28;20053;-52
2022/07/14 15:57:30;;;;;;;6.15;1.10;;;37.20;47.70;;;;;;4990486;28;20042;-53
2022/07/14 16:00:34;;;;;;;10.50;1.67;;;36.70;47.70;;;;;;4988609;28;20050;-57
2022/07/14 16:03:38;;;;;;;3.25;1.35;;;36.70;48.10;;;;;;4990539;28;20417;-54
2022/07/14 16:06:43;;;;;;;3.42;1.30;;;36.70;48.70;;;;;;4990845;28;20046;-55
2022/07/14 16:09:46;;;;;;;4.32;1.17;;;36.70;48.10;;;;;;4990299;28;20051;-53
2022/07/14 16:12:50;;;;;;;3.75;1.08;;;36.60;48.30;;;;;;4990882;28;20045;-54
2022/07/14 16:15:54;;;;;;;4.82;1.30;;;36.60;48.30;;;;;;4990431;28;20054;-54
2022/07/14 16:18:58;;;;;;;2.60;1.23;;;36.50;47.80;;;;;;4990606;28;20046;-53
2022/07/14 16:22:02;;;;;;;3.03;1.20;;;36.50;48.10;;;;;;4990401;28;20037;-52
2022/07/14 16:25:07;;;;;;;6.18;1.20;;;36.40;49.20;;;;;;4990190;28;20050;-53
2022/07/14 16:28:11;;;;;;;3.13;1.02;;;36.50;48.50;;;;;;4992899;28;20308;-51
2022/07/14 16:31:16;;;;;;;7.68;1.20;;;36.40;47.80;;;;;;4994712;28;20304;-53